Airfield :
LOGIN :

Register | Disclaimer

   EN    FR    IT 

 










Legend :    VFR   Marginal VFR   IFR   Intensive IFR   Very Intensive IFR
Visi :
Ceiling :
>= 8 km
>= 3000ft
5 to 8 km
1000 to 3000 ft
1500m to 5 km
500 to 1000 ft
800 to 1500m
200 to 500 ft
< 800m
< 200 ft
Symbols :   Thunderstorms  Fog  Heavy snow  Heavy precipitations  Wind > 20 kt
SIGMETs :     Misc.  Thunderstorms  Icing  Turbulence  Mountain Waves  Volcanic Ashes







- Airport Elevation : 32 ft
- IATA code : LKZ


EGUL - RAF Lakenheath

CURRENT METAR :
  • 270056Z AUTO 22003KT 9999 BKN044 03/00 A3050 RMK AO2 SLP332 T00290003 $

EXPIRED METARs :
  • 262356Z AUTO 00000KT 9999 CLR 04/01 A3050 RMK AO2 SLP332 60000 T00380007 10102 20037 401141017 53003 $
  • 262256Z AUTO 00000KT 9999 CLR 06/02 A3049 RMK AO2 SLP328 T00550018 $

TAF TAF EGUL
Valid from the 26 at 20:00 until the 28 at 02:00 UTC


262001Z 2620/2802 29006KT 9999 BKN030 QNH3046INS
BECMG 2706/2707 28006KT 9999 BKN020 QNH3051INS
BECMG 2711/2712 30006KT 9999 BKN025 QNH3054INS
BECMG 2723/2724 30006KT 9999 BKN015 QNH3057INS TX12/2715Z TN02/2706Z
No reported NOTAMs for that airfield.



MET'MAP, your aeronautical weather chart ! - Copyright ORBIFLY December 2007 - Disclaimer

ORBIFLY MET'MAP TEAM :

Programming & Development : Alexandra Zaïnal
Concept & Development : Baudouin d'Aumeries
Co-Development & Prog : Marc-Olivier Méhu
Technical & hardware support : Manuel Goepfert

Contact : metmap@orbifly.com




SOURCES & CREDITS :

   NOAA